Time;durP1;ratioP1;P1;durP2;ratioP2;P2;SDS_P1;SDS_P2;PMS_P1;PMS_P2;Temp;Humidity;BMP_temperature;BMP_pressure;BME280_temperature;BME280_humidity;BME280_pressure;Samples;Min_cycle;Max_cycle;Signal;HPM_P1;HPM_P2
2021/05/03 04:51:32;;;;;;;14.68;8.40;;;2.70;99.90;;;;;;5435194;23;20556;-68
2021/05/03 04:53:59;;;;;;;14.45;7.47;;;3.00;99.90;;;;;;4971110;28;20042;-69
2021/05/03 04:56:25;;;;;;;10.20;6.78;;;3.10;99.90;;;;;;4971420;28;20122;-69
2021/05/03 04:58:52;;;;;;;8.75;7.38;;;3.50;99.90;;;;;;4972636;28;20070;-69
2021/05/03 05:01:18;;;;;;;9.15;6.75;;;4.20;99.90;;;;;;4971608;28;20043;-70
2021/05/03 05:03:45;;;;;;;10.20;5.55;;;4.80;99.90;;;;;;4971964;28;20054;-70
2021/05/03 05:06:11;;;;;;;11.45;5.78;;;5.70;99.90;;;;;;4944421;23;20071;-71
2021/05/03 05:08:39;;;;;;;10.93;5.82;;;6.30;99.90;;;;;;4933320;29;20111;-73
2021/05/03 05:11:05;;;;;;;8.93;5.18;;;6.60;99.90;;;;;;4933486;29;20179;-71
2021/05/03 05:13:32;;;;;;;9.35;6.22;;;7.00;99.90;;;;;;4933521;29;20050;-71
2021/05/03 05:15:59;;;;;;;8.35;5.95;;;7.00;99.90;;;;;;4917197;29;20074;-71
2021/05/03 05:18:26;;;;;;;7.57;5.47;;;7.00;99.90;;;;;;4915639;29;20048;-71
2021/05/03 05:20:52;;;;;;;;;;;7.30;99.90;;;;;;4910888;29;20059;-72
2021/05/03 05:23:19;;;;;;;8.82;5.47;;;7.90;99.90;;;;;;4920527;29;19975;-72
2021/05/03 05:25:46;;;;;;;8.13;4.40;;;8.20;99.90;;;;;;4914687;29;20055;-72
2021/05/03 05:28:13;;;;;;;9.27;5.15;;;8.40;99.90;;;;;;4914025;29;20492;-73
2021/05/03 05:30:39;;;;;;;9.73;4.97;;;8.50;99.90;;;;;;4901506;29;20044;-72
2021/05/03 05:33:06;;;;;;;6.25;5.07;;;8.00;99.90;;;;;;4910443;29;20099;-72
2021/05/03 05:35:32;;;;;;;5.72;5.00;;;8.00;99.90;;;;;;4895232;29;20449;-72
2021/05/03 05:37:59;;;;;;;7.93;5.40;;;8.60;99.90;;;;;;4919248;29;20055;-72
2021/05/03 05:40:26;;;;;;;15.73;5.97;;;8.60;99.90;;;;;;4914607;29;20465;-71
2021/05/03 05:42:53;;;;;;;15.82;5.88;;;8.10;99.90;;;;;;4913719;29;20465;-71
2021/05/03 05:45:20;;;;;;;7.60;5.63;;;9.70;99.90;;;;;;4914133;29;20119;-72
2021/05/03 05:47:46;;;;;;;9.70;5.07;;;9.80;99.90;;;;;;4915755;29;20151;-72
2021/05/03 05:50:13;;;;;;;10.07;5.03;;;9.60;99.90;;;;;;4896926;29;20066;-71
2021/05/03 05:52:39;;;;;;;;;;;9.80;99.90;;;;;;4914090;29;20074;-71
2021/05/03 05:55:06;;;;;;;8.55;5.28;;;9.80;99.90;;;;;;4912656;29;19930;-72
2021/05/03 05:57:33;;;;;;;7.97;5.28;;;9.50;99.90;;;;;;4898176;29;20108;-72
2021/05/03 06:00:00;;;;;;;12.35;5.70;;;10.20;99.90;;;;;;4914768;29;20518;-73
2021/05/03 06:02:26;;;;;;;10.02;5.60;;;10.70;99.90;;;;;;4913726;29;20051;-72
2021/05/03 06:04:53;;;;;;;11.93;5.20;;;10.40;99.90;;;;;;4900426;29;20063;-73
2021/05/03 06:07:19;;;;;;;12.00;5.55;;;10.70;99.90;;;;;;4914186;29;20056;-72
2021/05/03 06:09:46;;;;;;;8.77;5.63;;;10.00;99.90;;;;;;4912779;29;20052;-72
2021/05/03 06:12:13;;;;;;;9.07;5.70;;;10.50;99.90;;;;;;4914236;29;20755;-73
2021/05/03 06:14:39;;;;;;;8.57;5.25;;;10.70;99.90;;;;;;4913907;29;20044;-72
2021/05/03 06:17:06;;;;;;;8.07;5.63;;;11.20;99.90;;;;;;4913685;29;20091;-72
2021/05/03 06:19:33;;;;;;;7.25;5.63;;;11.70;99.90;;;;;;4913610;29;20520;-72
2021/05/03 06:21:59;;;;;;;7.45;5.28;;;11.80;99.90;;;;;;4920243;29;20130;-73
2021/05/03 06:24:26;;;;;;;8.70;5.50;;;11.80;99.90;;;;;;4932760;29;20496;-73
2021/05/03 06:26:52;;;;;;;11.13;5.47;;;11.40;99.90;;;;;;4932732;29;20126;-72
2021/05/03 06:29:19;;;;;;;6.70;5.10;;;12.30;99.90;;;;;;4932611;29;20079;-71
2021/05/03 06:31:47;;;;;;;11.20;5.75;;;11.80;99.90;;;;;;4932560;29;20632;-71
2021/05/03 06:34:14;;;;;;;9.85;5.57;;;11.20;99.90;;;;;;4932613;29;20056;-72
2021/05/03 06:36:41;;;;;;;8.95;5.53;;;11.10;99.90;;;;;;4915811;29;20048;-71
2021/05/03 06:39:07;;;;;;;6.40;5.15;;;11.80;99.90;;;;;;4932637;29;20075;-72
2021/05/03 06:41:34;;;;;;;6.55;4.97;;;11.30;99.90;;;;;;4932443;29;20040;-71
2021/05/03 06:44:00;;;;;;;6.60;5.43;;;11.70;99.90;;;;;;4933025;29;20123;-72
2021/05/03 06:46:27;;;;;;;8.73;5.95;;;12.10;99.90;;;;;;4932814;29;20055;-71
2021/05/03 06:48:53;;;;;;;10.15;6.68;;;12.90;99.90;;;;;;4933023;29;20047;-72
2021/05/03 06:51:21;;;;;;;11.13;6.57;;;12.30;99.90;;;;;;4915524;29;20071;-72
2021/05/03 06:53:47;;;;;;;7.18;6.43;;;12.80;99.90;;;;;;4932604;29;20095;-71
2021/05/03 06:56:14;;;;;;;13.77;7.07;;;12.80;99.90;;;;;;4932378;29;20130;-71
2021/05/03 06:58:40;;;;;;;10.20;5.80;;;12.60;99.90;;;;;;4932158;29;20051;-71
2021/05/03 07:01:07;;;;;;;6.75;6.07;;;12.90;99.90;;;;;;4932502;29;20604;-71
2021/05/03 07:03:33;;;;;;;7.20;6.10;;;13.10;99.90;;;;;;4932672;29;20055;-73
2021/05/03 07:06:00;;;;;;;9.73;6.18;;;12.60;99.90;;;;;;4932180;29;20142;-72
2021/05/03 07:08:27;;;;;;;11.25;5.82;;;12.70;99.90;;;;;;4932615;29;20043;-72
2021/05/03 07:10:54;;;;;;;7.57;6.40;;;13.10;99.90;;;;;;4932634;29;20083;-72
2021/05/03 07:13:20;;;;;;;9.00;5.88;;;12.30;99.90;;;;;;4934400;29;20080;-71
2021/05/03 07:15:47;;;;;;;10.93;6.18;;;12.70;99.90;;;;;;4934389;29;20051;-71
2021/05/03 07:18:14;;;;;;;;;;;12.80;99.90;;;;;;4936553;29;20048;-71
2021/05/03 07:20:40;;;;;;;13.77;6.70;;;12.00;99.90;;;;;;4936512;29;19927;-71
2021/05/03 07:23:08;;;;;;;8.98;6.18;;;12.10;99.90;;;;;;4920785;29;20108;-71
2021/05/03 07:25:36;;;;;;;8.00;5.88;;;12.10;99.90;;;;;;4917229;29;20044;-70
2021/05/03 07:28:03;;;;;;;8.90;6.75;;;12.50;99.90;;;;;;4918973;29;20101;-70
2021/05/03 07:30:30;;;;;;;9.68;6.57;;;12.50;99.90;;;;;;4916382;29;20078;-71
2021/05/03 07:32:56;;;;;;;8.57;6.50;;;13.20;99.90;;;;;;4916764;29;20044;-71
2021/05/03 07:35:23;;;;;;;11.55;6.80;;;13.80;99.90;;;;;;4915969;29;20078;-71
2021/05/03 07:37:49;;;;;;;10.57;8.43;;;14.30;99.90;;;;;;4917940;29;20052;-71
2021/05/03 07:40:16;;;;;;;8.70;7.07;;;14.10;99.90;;;;;;4921636;29;20052;-70
2021/05/03 07:42:44;;;;;;;9.68;6.85;;;13.40;99.90;;;;;;4906630;29;20078;-70
2021/05/03 07:45:15;;;;;;;9.88;6.82;;;13.30;99.90;;;;;;4928527;29;20130;-72
2021/05/03 07:47:41;;;;;;;7.35;6.70;;;13.40;99.90;;;;;;4920133;29;20500;-71
2021/05/03 07:50:09;;;;;;;10.35;6.55;;;14.20;99.90;;;;;;4935342;29;20055;-72
2021/05/03 07:52:36;;;;;;;7.40;6.55;;;14.30;99.90;;;;;;4952653;29;20075;-71
2021/05/03 07:55:04;;;;;;;9.40;5.78;;;15.20;99.30;;;;;;4949482;29;20047;-73
2021/05/03 07:57:31;;;;;;;7.25;5.90;;;16.00;95.30;;;;;;4946087;29;20475;-73
2021/05/03 08:00:09;;;;;;;6.20;5.03;;;14.90;95.70;;;;;;4946786;29;20043;-72
2021/05/03 08:02:36;;;;;;;6.68;5.20;;;15.40;95.80;;;;;;4959561;29;20063;-74
2021/05/03 08:05:03;;;;;;;5.00;4.07;;;15.10;94.50;;;;;;4944455;29;20074;-73
2021/05/03 08:07:30;;;;;;;4.82;4.38;;;15.70;92.70;;;;;;4924191;29;20460;-74
2021/05/03 08:09:56;;;;;;;6.03;4.47;;;15.90;90.70;;;;;;4944019;29;20051;-73
2021/05/03 08:12:23;;;;;;;;;;;16.30;90.00;;;;;;4951655;29;20036;-72
2021/05/03 08:14:52;;;;;;;7.38;4.60;;;16.40;87.30;;;;;;4976170;28;20088;-72
2021/05/03 08:17:20;;;;;;;10.00;6.50;;;15.30;86.70;;;;;;4967080;29;20244;-72
2021/05/03 08:19:47;;;;;;;8.48;6.47;;;14.70;93.80;;;;;;4940456;29;20107;-73
2021/05/03 08:22:14;;;;;;;7.97;5.25;;;14.10;95.60;;;;;;4947396;29;20531;-75
2021/05/03 08:24:41;;;;;;;7.47;5.90;;;14.10;95.70;;;;;;4938660;29;20055;-72
2021/05/03 08:27:08;;;;;;;10.80;6.38;;;13.50;96.20;;;;;;4938499;29;20047;-70
2021/05/03 08:29:36;;;;;;;5.25;4.75;;;13.50;96.60;;;;;;4936801;29;20048;-71
2021/05/03 08:32:04;;;;;;;5.15;4.65;;;14.60;93.60;;;;;;4940001;29;20036;-71
2021/05/03 08:34:32;;;;;;;8.95;6.25;;;14.60;92.70;;;;;;4937898;29;20479;-71
2021/05/03 08:36:59;;;;;;;6.53;4.95;;;14.40;93.90;;;;;;4941208;29;20050;-72
2021/05/03 08:39:26;;;;;;;;;;;14.80;93.10;;;;;;4940740;29;20035;-72
2021/05/03 08:41:56;;;;;;;10.25;6.07;;;14.60;93.60;;;;;;4927178;29;20658;-71
2021/05/03 08:44:23;;;;;;;7.65;5.75;;;14.50;93.80;;;;;;4943028;29;20044;-72
2021/05/03 08:46:49;;;;;;;;;;;14.60;93.90;;;;;;4942067;29;20051;-71
2021/05/03 08:49:20;;;;;;;6.47;5.72;;;14.50;93.10;;;;;;4942041;29;20029;-70
2021/05/03 08:51:51;;;;;;;6.82;5.82;;;14.70;92.70;;;;;;4936282;29;20047;-72
2021/05/03 08:54:25;;;;;;;6.32;5.72;;;15.40;91.90;;;;;;4938844;29;20538;-71
2021/05/03 08:56:53;;;;;;;6.15;5.55;;;15.40;91.00;;;;;;4944238;29;20059;-73
2021/05/03 08:59:20;;;;;;;9.45;5.40;;;15.40;91.80;;;;;;4934321;29;20047;-72
2021/05/03 09:01:48;;;;;;;7.13;5.32;;;16.10;90.20;;;;;;4932048;29;20062;-71
2021/05/03 09:04:15;;;;;;;5.00;2.80;;;16.30;90.20;;;;;;4922783;29;20114;-74
2021/05/03 09:09:36;;;;;;;3.53;3.08;;;17.30;78.60;;;;;;5091165;27;20372;-71
2021/05/03 09:12:06;;;;;;;5.53;3.75;;;17.20;75.40;;;;;;5085575;28;20081;-69
2021/05/03 09:14:33;;;;;;;5.38;3.60;;;17.40;76.90;;;;;;5087132;28;20496;-71
2021/05/03 09:17:00;;;;;;;8.43;3.60;;;17.40;76.40;;;;;;5087638;28;20048;-72
2021/05/03 09:19:28;;;;;;;6.32;4.13;;;17.80;75.80;;;;;;5086341;28;20036;-72
2021/05/03 09:21:55;;;;;;;6.05;4.13;;;16.20;79.60;;;;;;5080669;28;20119;-71
2021/05/03 09:24:25;;;;;;;4.07;3.67;;;16.10;80.30;;;;;;5082942;28;20044;-70
2021/05/03 09:27:03;;;;;;;4.50;3.97;;;16.50;78.90;;;;;;5085780;28;20419;-71
2021/05/03 09:29:36;;;;;;;7.00;4.18;;;17.00;78.50;;;;;;5058338;28;20037;-72
2021/05/03 09:32:08;;;;;;;8.77;5.05;;;17.10;80.70;;;;;;5084748;28;20538;-72
2021/05/03 09:34:37;;;;;;;6.47;4.63;;;18.10;79.20;;;;;;5085699;28;20090;-72
2021/05/03 09:37:27;;;;;;;3.10;2.80;;;18.30;78.50;;;;;;5080354;28;20113;-73
2021/05/03 09:39:59;;;;;;;2.72;1.50;;;18.80;70.50;;;;;;5076341;28;20063;-72
2021/05/03 09:42:46;;;;;;;4.97;1.30;;;19.00;67.40;;;;;;5089317;28;20048;-73
2021/05/03 09:45:14;;;;;;;1.05;1.00;;;19.60;57.70;;;;;;5084502;28;20047;-70
2021/05/03 09:47:42;;;;;;;2.05;0.98;;;18.30;56.60;;;;;;5077531;28;20412;-72
2021/05/03 09:50:13;;;;;;;1.33;1.10;;;16.80;59.80;;;;;;5093641;28;20510;-72
2021/05/03 09:53:00;;;;;;;3.70;1.30;;;17.40;60.90;;;;;;5094627;28;20101;-71
2021/05/03 09:55:39;;;;;;;3.30;2.47;;;18.60;59.10;;;;;;5078263;28;20055;-71
2021/05/03 09:58:17;;;;;;;3.08;2.45;;;17.50;61.90;;;;;;5070484;28;20040;-71
2021/05/03 10:00:45;;;;;;;8.32;3.65;;;18.10;64.80;;;;;;5071367;28;20064;-73
2021/05/03 10:03:34;;;;;;;3.67;2.65;;;17.30;67.50;;;;;;5052609;28;20389;-72
2021/05/03 10:06:02;;;;;;;2.75;2.22;;;17.30;68.70;;;;;;5065144;28;20056;-72
2021/05/03 10:08:29;;;;;;;1.58;1.20;;;17.90;62.30;;;;;;5067080;28;20471;-71
2021/05/03 10:11:00;;;;;;;1.02;0.80;;;17.60;56.70;;;;;;5069643;28;20519;-72
2021/05/03 10:13:29;;;;;;;1.20;1.10;;;17.60;56.00;;;;;;5069117;28;20049;-72
2021/05/03 10:15:59;;;;;;;1.60;1.10;;;18.30;55.30;;;;;;5075619;28;20032;-73
2021/05/03 10:18:28;;;;;;;2.45;1.27;;;18.30;53.40;;;;;;5060763;28;20056;-73
2021/05/03 10:21:02;;;;;;;11.02;1.40;;;18.20;53.40;;;;;;5059334;28;20033;-74
2021/05/03 10:23:45;;;;;;;3.17;1.17;;;17.60;54.90;;;;;;5032856;28;20457;-73
2021/05/03 10:26:13;;;;;;;2.55;1.27;;;16.30;55.30;;;;;;5055115;28;20056;-73
2021/05/03 10:28:51;;;;;;;1.55;1.33;;;15.40;58.90;;;;;;5056130;28;20120;-72
2021/05/03 10:31:17;;;;;;;4.63;2.50;;;15.20;60.40;;;;;;5055252;28;20051;-73
2021/05/03 10:33:44;;;;;;;3.38;1.92;;;14.90;62.10;;;;;;5062907;28;20350;-74
2021/05/03 10:36:30;;;;;;;7.30;3.97;;;14.40;66.10;;;;;;5053420;28;20056;-71
2021/05/03 10:38:57;;;;;;;6.03;3.90;;;14.00;75.70;;;;;;5042572;28;20042;-73
2021/05/03 10:41:26;;;;;;;8.15;4.40;;;14.60;74.10;;;;;;5040948;28;20049;-72
2021/05/03 10:44:12;;;;;;;7.70;4.32;;;15.20;75.10;;;;;;5040637;28;20048;-73
2021/05/03 10:49:43;;;;;;;4.53;3.55;;;14.90;74.60;;;;;;5035686;28;20061;-73
2021/05/03 10:52:13;;;;;;;6.97;3.70;;;16.20;70.40;;;;;;5037693;28;20058;-73
2021/05/03 10:54:50;;;;;;;4.00;3.50;;;16.20;69.80;;;;;;5055138;28;20471;-72
2021/05/03 10:57:36;;;;;;;4.43;3.63;;;16.30;69.90;;;;;;5054755;28;20045;-72
2021/05/03 11:00:08;;;;;;;5.03;3.78;;;16.60;70.70;;;;;;5054856;28;20047;-73
2021/05/03 11:02:46;;;;;;;4.68;3.70;;;16.20;71.90;;;;;;5055580;28;20302;-73
2021/05/03 11:05:24;;;;;;;3.85;3.22;;;16.80;69.70;;;;;;5054746;28;20064;-73
2021/05/03 11:08:30;;;;;;;4.93;3.65;;;17.60;64.90;;;;;;5055134;28;20043;-73
2021/05/03 11:11:08;;;;;;;3.00;1.90;;;17.80;63.80;;;;;;5061732;28;20048;-73
2021/05/03 11:14:08;;;;;;;2.35;1.70;;;17.80;59.50;;;;;;5072169;28;20048;-73
2021/05/03 11:17:09;;;;;;;2.97;1.48;;;17.10;59.20;;;;;;5060455;28;20041;-74
2021/05/03 11:22:43;;;;;;;4.25;1.58;;;16.20;60.50;;;;;;5044406;28;20041;-70
2021/05/03 11:25:12;;;;;;;4.75;1.92;;;16.10;60.30;;;;;;5052153;28;20056;-70
2021/05/03 11:27:48;;;;;;;4.28;2.88;;;16.30;59.90;;;;;;5050244;28;20515;-74
2021/05/03 11:30:23;;;;;;;6.47;3.53;;;15.70;63.80;;;;;;5052081;28;20037;-71
2021/05/03 11:32:54;;;;;;;5.30;3.65;;;15.60;66.10;;;;;;5060515;28;20052;-72
2021/05/03 11:35:29;;;;;;;6.82;3.53;;;14.80;67.60;;;;;;5067162;28;20036;-72
2021/05/03 11:38:01;;;;;;;10.20;3.60;;;14.70;67.70;;;;;;5032435;28;20033;-72
2021/05/03 11:40:49;;;;;;;10.27;3.40;;;15.40;68.10;;;;;;5040266;28;20068;-73
2021/05/03 11:46:12;;;;;;;5.28;3.05;;;14.30;68.00;;;;;;5059344;28;20093;-70
2021/05/03 11:48:40;;;;;;;7.90;3.35;;;14.10;68.20;;;;;;5072799;28;20040;-71
2021/05/03 11:51:08;;;;;;;4.25;3.10;;;14.50;67.70;;;;;;5070411;28;20052;-70
2021/05/03 11:53:40;;;;;;;3.38;3.08;;;14.70;66.60;;;;;;5070219;28;20044;-71
2021/05/03 11:56:18;;;;;;;5.07;3.45;;;14.30;69.30;;;;;;5070406;28;20090;-71
2021/05/03 11:58:45;;;;;;;9.35;3.67;;;14.40;69.40;;;;;;5061185;28;20056;-71
2021/05/03 12:01:13;;;;;;;4.47;3.03;;;14.80;70.10;;;;;;5059268;28;20052;-71
2021/05/03 12:03:45;;;;;;;4.22;2.20;;;14.70;67.90;;;;;;5051363;28;20467;-71
2021/05/03 12:06:31;;;;;;;5.72;2.60;;;15.10;64.20;;;;;;5059586;28;20116;-71
2021/05/03 12:08:59;;;;;;;4.28;2.30;;;16.10;63.90;;;;;;5066743;28;20033;-69
2021/05/03 12:11:26;;;;;;;5.05;3.42;;;16.90;62.80;;;;;;5071820;28;20403;-71
2021/05/03 12:13:56;;;;;;;6.13;3.20;;;17.00;59.80;;;;;;5071433;28;20037;-75
2021/05/03 12:16:38;;;;;;;3.45;2.80;;;17.30;60.10;;;;;;5064119;28;20083;-74
2021/05/03 12:19:13;;;;;;;6.70;2.88;;;17.20;58.70;;;;;;5047371;28;20040;-74
2021/05/03 12:21:40;;;;;;;5.10;2.63;;;17.60;59.90;;;;;;5064277;28;20040;-72
2021/05/03 12:24:15;;;;;;;4.40;2.40;;;17.20;59.70;;;;;;5049834;28;20256;-72
2021/05/03 12:26:52;;;;;;;3.42;2.78;;;16.30;59.80;;;;;;5053187;28;20067;-72
2021/05/03 12:29:20;;;;;;;4.20;2.42;;;16.80;60.80;;;;;;5067198;28;20118;-72
2021/05/03 12:31:47;;;;;;;5.78;2.42;;;16.30;61.40;;;;;;5067040;28;20131;-72
2021/05/03 12:34:19;;;;;;;6.88;3.17;;;17.10;60.00;;;;;;5055076;28;20049;-72
2021/05/03 12:37:05;;;;;;;6.32;2.78;;;17.60;59.00;;;;;;5045828;28;20048;-73
2021/05/03 12:39:32;;;;;;;4.43;2.95;;;18.00;58.70;;;;;;5042677;28;20038;-71
2021/05/03 12:42:11;;;;;;;7.43;2.78;;;17.10;58.30;;;;;;5029996;28;20124;-71
2021/05/03 12:44:48;;;;;;;2.47;2.22;;;16.60;59.70;;;;;;5055809;28;20120;-71
2021/05/03 12:47:25;;;;;;;4.90;3.10;;;17.10;59.60;;;;;;5070157;28;20488;-71
2021/05/03 12:50:02;;;;;;;4.90;3.13;;;17.40;58.40;;;;;;5068384;28;20044;-70
2021/05/03 12:52:34;;;;;;;2.58;2.35;;;16.80;62.10;;;;;;5061929;28;20062;-71
2021/05/03 12:55:06;;;;;;;6.93;2.90;;;16.50;60.10;;;;;;5065912;28;20082;-71
2021/05/03 12:57:46;;;;;;;6.75;3.13;;;16.30;62.50;;;;;;5045385;28;20083;-71
2021/05/03 13:00:17;;;;;;;5.50;3.78;;;15.80;64.50;;;;;;5053394;28;20041;-71
2021/05/03 13:03:01;;;;;;;4.07;3.28;;;15.20;63.20;;;;;;5058358;28;20045;-71
2021/05/03 13:05:34;;;;;;;3.90;2.85;;;15.30;64.60;;;;;;5055027;28;20128;-70
2021/05/03 13:08:10;;;;;;;8.00;2.97;;;15.20;65.80;;;;;;5048187;28;20037;-71
2021/05/03 13:11:04;;;;;;;5.95;2.97;;;15.00;67.20;;;;;;5047779;28;20045;-71
2021/05/03 13:22:58;;;;;;;2.78;2.58;;;15.20;65.60;;;;;;5062208;28;20036;-71
2021/05/03 13:25:36;;;;;;;3.47;2.70;;;15.10;63.20;;;;;;5053372;28;20100;-70
2021/05/03 13:28:08;;;;;;;6.30;2.90;;;15.10;62.70;;;;;;5068489;28;20687;-71
2021/05/03 13:30:36;;;;;;;5.55;2.67;;;15.20;61.60;;;;;;5048385;28;20080;-71
2021/05/03 13:33:03;;;;;;;2.97;2.10;;;15.20;62.10;;;;;;5051709;28;20049;-71
2021/05/03 13:35:30;;;;;;;4.82;2.60;;;15.50;63.30;;;;;;5062873;28;20485;-71
2021/05/03 13:37:57;;;;;;;3.55;2.50;;;15.80;63.20;;;;;;5070111;28;20439;-71
2021/05/03 13:40:25;;;;;;;3.20;2.33;;;16.10;62.00;;;;;;5069389;28;20052;-71
2021/05/03 13:42:53;;;;;;;4.72;2.28;;;16.00;62.00;;;;;;5065831;28;20036;-71
2021/05/03 13:45:21;;;;;;;2.95;2.60;;;16.10;62.90;;;;;;5068918;28;20052;-72
2021/05/03 13:47:48;;;;;;;3.95;2.22;;;15.80;62.30;;;;;;5066729;28;20690;-71
2021/05/03 13:50:15;;;;;;;4.38;2.63;;;15.30;63.40;;;;;;5066239;28;20144;-72
2021/05/03 13:52:41;;;;;;;6.18;2.50;;;15.20;64.40;;;;;;5062151;28;20071;-72
2021/05/03 13:55:11;;;;;;;5.00;2.45;;;15.00;65.40;;;;;;5061188;28;20120;-72
2021/05/03 13:57:37;;;;;;;3.20;2.50;;;15.40;64.30;;;;;;5054854;28;20123;-71
2021/05/03 14:00:06;;;;;;;4.45;2.05;;;15.50;62.90;;;;;;5061250;28;20513;-71
2021/05/03 14:02:38;;;;;;;6.38;3.95;;;15.70;63.00;;;;;;5069069;28;20127;-71
2021/05/03 14:05:06;;;;;;;6.78;3.20;;;15.60;62.10;;;;;;5054479;28;20484;-71
2021/05/03 14:07:33;;;;;;;4.47;2.78;;;15.50;61.50;;;;;;5060065;28;20162;-71
2021/05/03 14:10:00;;;;;;;2.60;2.40;;;15.50;61.50;;;;;;5072742;28;20043;-75
2021/05/03 14:12:27;;;;;;;;;;;15.30;64.50;;;;;;5076988;28;20036;-78
2021/05/03 14:14:54;;;;;;;7.80;2.53;;;15.10;63.30;;;;;;5074393;28;19927;-73
2021/05/03 14:17:20;;;;;;;;;;;15.30;63.70;;;;;;5063930;28;20129;-72
2021/05/03 14:19:47;;;;;;;3.00;2.22;;;16.20;63.90;;;;;;5056950;28;19920;-71
2021/05/03 14:22:13;;;;;;;3.88;2.25;;;17.00;60.80;;;;;;5054007;28;20037;-72
2021/05/03 14:24:40;;;;;;;3.05;2.50;;;17.50;59.40;;;;;;5055342;28;20136;-72
2021/05/03 14:27:07;;;;;;;4.90;2.83;;;17.00;59.20;;;;;;5067386;28;20045;-71
2021/05/03 14:29:38;;;;;;;;;;;16.90;59.30;;;;;;5067882;28;20029;-71
2021/05/03 14:32:09;;;;;;;5.03;2.30;;;16.30;60.50;;;;;;5051527;28;20380;-72
2021/05/03 14:34:37;;;;;;;3.42;2.28;;;16.00;62.00;;;;;;5055013;28;20049;-71
2021/05/03 14:37:03;;;;;;;2.67;2.15;;;16.10;60.90;;;;;;5072271;28;20178;-70
2021/05/03 14:39:31;;;;;;;6.07;2.50;;;16.00;61.30;;;;;;5055345;28;20397;-71
2021/05/03 14:41:57;;;;;;;2.88;2.60;;;15.90;61.60;;;;;;5058656;28;20044;-74
2021/05/03 14:44:25;;;;;;;9.07;3.42;;;16.00;62.50;;;;;;5055671;28;20048;-73
2021/05/03 14:46:55;;;;;;;4.43;2.38;;;15.80;62.10;;;;;;5057802;28;20041;-72
2021/05/03 14:52:07;;;;;;;3.67;2.30;;;15.60;62.30;;;;;;5049469;28;20045;-72
2021/05/03 14:54:42;;;;;;;3.88;2.53;;;15.40;61.70;;;;;;5054851;28;20048;-72
2021/05/03 14:57:10;;;;;;;7.07;2.63;;;15.30;62.00;;;;;;5068991;28;20407;-71
2021/05/03 14:59:38;;;;;;;4.70;2.67;;;15.30;61.20;;;;;;5065800;28;20404;-71
2021/05/03 15:02:06;;;;;;;2.95;2.40;;;15.40;61.10;;;;;;5071463;28;20605;-73
2021/05/03 15:04:34;;;;;;;4.00;2.38;;;15.30;62.20;;;;;;5070094;28;20060;-72
2021/05/03 15:07:03;;;;;;;2.60;2.38;;;14.90;61.20;;;;;;5070893;28;20040;-72
2021/05/03 15:09:37;;;;;;;3.35;2.40;;;14.70;62.60;;;;;;5057580;28;20659;-72
2021/05/03 15:12:07;;;;;;;7.03;2.70;;;14.50;62.90;;;;;;5067995;28;20879;-73
2021/05/03 15:14:42;;;;;;;2.92;2.03;;;14.40;61.80;;;;;;5067492;28;20062;-71
2021/05/03 15:17:23;;;;;;;5.45;2.30;;;14.50;62.30;;;;;;5069653;28;20048;-72
2021/05/03 15:19:54;;;;;;;4.57;2.50;;;14.80;62.80;;;;;;5069417;28;20036;-74
2021/05/03 15:22:20;;;;;;;4.70;2.30;;;14.90;63.60;;;;;;5066291;28;20128;-72
2021/05/03 15:24:48;;;;;;;5.95;2.80;;;15.10;62.00;;;;;;5070652;28;20048;-71
2021/05/03 15:27:20;;;;;;;7.32;2.80;;;15.10;62.40;;;;;;5068071;28;20074;-72
2021/05/03 15:30:01;;;;;;;7.20;2.58;;;15.00;62.50;;;;;;5068079;28;20504;-73
2021/05/03 15:32:51;;;;;;;4.47;2.50;;;15.00;63.30;;;;;;5070678;28;20504;-72
2021/05/03 15:35:19;;;;;;;3.33;2.70;;;15.20;63.20;;;;;;5067551;28;20064;-72
2021/05/03 15:37:46;;;;;;;4.70;2.58;;;15.10;62.30;;;;;;5069900;28;20045;-71
2021/05/03 15:40:15;;;;;;;5.85;3.03;;;15.00;64.60;;;;;;5066536;28;20050;-72
2021/05/03 15:42:43;;;;;;;3.53;2.83;;;14.50;63.10;;;;;;5066116;28;20504;-72
2021/05/03 15:45:11;;;;;;;6.55;2.67;;;14.60;64.00;;;;;;5072004;28;20040;-73
2021/05/03 15:47:39;;;;;;;4.65;2.85;;;14.30;63.60;;;;;;5074516;28;20048;-72
2021/05/03 15:50:07;;;;;;;2.60;2.40;;;14.40;64.10;;;;;;5075080;28;20067;-74
2021/05/03 15:52:37;;;;;;;3.22;2.35;;;14.50;64.20;;;;;;5082538;28;20123;-73
2021/05/03 15:55:04;;;;;;;4.68;2.40;;;14.40;65.40;;;;;;5083679;28;20044;-72
2021/05/03 15:57:30;;;;;;;5.18;2.17;;;14.70;65.60;;;;;;5083726;28;20070;-71
2021/05/03 15:59:57;;;;;;;4.43;2.90;;;14.90;66.30;;;;;;5080142;28;20094;-72
2021/05/03 16:02:23;;;;;;;4.82;2.70;;;14.90;65.90;;;;;;5073586;28;20050;-72
2021/05/03 16:04:51;;;;;;;4.78;2.80;;;14.60;66.70;;;;;;5065933;28;20048;-72
2021/05/03 16:07:18;;;;;;;2.92;2.60;;;14.50;65.40;;;;;;5066106;28;20125;-72
2021/05/03 16:09:45;;;;;;;3.63;2.20;;;14.40;66.10;;;;;;5052152;28;20079;-73
2021/05/03 16:12:12;;;;;;;7.30;3.00;;;14.50;67.70;;;;;;5070404;28;20520;-76
2021/05/03 16:14:39;;;;;;;4.32;2.33;;;14.60;67.40;;;;;;5069349;28;20065;-71
2021/05/03 16:17:05;;;;;;;5.40;2.65;;;14.40;66.70;;;;;;5071515;28;20456;-71
2021/05/03 16:19:32;;;;;;;4.95;2.45;;;14.40;67.80;;;;;;5077576;28;20100;-71
2021/05/03 16:22:00;;;;;;;5.95;2.40;;;14.50;68.10;;;;;;5079373;28;20101;-74
2021/05/03 16:24:26;;;;;;;5.65;2.67;;;14.60;67.60;;;;;;5080249;28;20051;-73
2021/05/03 16:26:53;;;;;;;;;;;14.60;67.20;;;;;;5080766;28;20049;-72
2021/05/03 16:29:20;;;;;;;4.28;2.58;;;14.60;67.70;;;;;;5067671;28;19972;-74
2021/05/03 16:31:47;;;;;;;4.60;2.35;;;14.60;67.80;;;;;;5067040;28;20615;-73
2021/05/03 16:34:14;;;;;;;5.40;2.80;;;14.60;67.10;;;;;;5049654;28;20523;-72
2021/05/03 16:36:41;;;;;;;3.78;2.30;;;14.50;66.90;;;;;;5051362;28;20103;-74
2021/05/03 16:39:08;;;;;;;3.17;2.53;;;14.30;67.60;;;;;;5068219;28;20555;-71
2021/05/03 16:41:35;;;;;;;4.32;2.60;;;14.40;67.30;;;;;;5066446;28;20052;-72
2021/05/03 16:44:02;;;;;;;9.00;3.40;;;14.40;67.70;;;;;;5069183;28;20523;-72
2021/05/03 16:46:29;;;;;;;4.03;2.75;;;14.50;68.10;;;;;;5068240;28;20044;-73
2021/05/03 16:48:56;;;;;;;4.30;3.28;;;14.40;68.80;;;;;;5067921;28;20068;-72
2021/05/03 16:51:23;;;;;;;5.28;2.97;;;14.40;69.30;;;;;;5066096;28;20197;-72
2021/05/03 16:53:51;;;;;;;3.50;3.20;;;14.40;69.60;;;;;;5068934;28;20045;-73
2021/05/03 16:56:20;;;;;;;4.25;2.75;;;14.30;70.70;;;;;;5066608;28;20510;-71
2021/05/03 16:58:47;;;;;;;4.20;2.70;;;14.00;69.50;;;;;;5069562;28;20051;-72
2021/05/03 17:01:13;;;;;;;3.17;2.90;;;14.00;69.40;;;;;;5065837;28;20165;-72
2021/05/03 17:03:42;;;;;;;4.85;2.40;;;13.90;69.50;;;;;;5069203;28;20115;-72
2021/05/03 17:06:09;;;;;;;3.25;2.65;;;13.80;69.20;;;;;;5069123;28;20514;-72
2021/05/03 17:08:38;;;;;;;3.63;2.78;;;13.70;70.30;;;;;;5057663;28;20128;-71
2021/05/03 17:11:04;;;;;;;5.85;2.55;;;13.80;70.30;;;;;;5064640;28;20469;-73
2021/05/03 17:13:34;;;;;;;2.55;2.15;;;13.80;69.70;;;;;;5070611;28;20067;-73
2021/05/03 17:16:00;;;;;;;2.70;2.05;;;13.80;70.90;;;;;;5070391;28;20123;-72
2021/05/03 17:18:27;;;;;;;5.03;2.40;;;13.80;71.50;;;;;;5069745;28;20044;-73
2021/05/03 17:20:54;;;;;;;3.75;2.47;;;13.70;71.10;;;;;;5067762;28;20560;-73
2021/05/03 17:23:21;;;;;;;4.10;3.70;;;13.60;71.80;;;;;;5061813;28;20042;-73
2021/05/03 17:25:48;;;;;;;5.90;2.17;;;13.70;70.80;;;;;;5065779;28;20045;-74
2021/05/03 17:28:15;;;;;;;2.50;2.30;;;13.60;71.40;;;;;;5066640;28;20047;-74
2021/05/03 17:30:43;;;;;;;8.23;2.20;;;13.70;70.90;;;;;;5074415;28;20069;-73
2021/05/03 17:33:09;;;;;;;3.83;2.38;;;13.70;71.80;;;;;;5072792;28;20576;-72
2021/05/03 17:35:36;;;;;;;4.18;2.25;;;13.60;72.40;;;;;;5069825;28;20561;-73
2021/05/03 17:38:03;;;;;;;2.58;1.90;;;13.60;73.10;;;;;;5071355;28;20051;-74
2021/05/03 17:40:30;;;;;;;4.35;2.35;;;13.50;72.60;;;;;;5071371;28;20047;-73
2021/05/03 17:42:57;;;;;;;8.15;2.50;;;13.50;73.10;;;;;;5073324;28;20040;-75
2021/05/03 17:45:24;;;;;;;3.30;2.17;;;13.50;73.00;;;;;;5065949;28;20056;-73
2021/05/03 17:47:51;;;;;;;3.80;3.30;;;13.40;73.30;;;;;;5074370;28;20044;-72
2021/05/03 17:50:18;;;;;;;4.32;3.10;;;13.40;73.80;;;;;;5048678;28;20046;-72
2021/05/03 17:52:45;;;;;;;4.80;2.15;;;13.40;73.80;;;;;;5060954;28;20053;-75
2021/05/03 17:55:13;;;;;;;3.13;2.50;;;13.30;72.90;;;;;;5069224;28;20411;-73
2021/05/03 17:57:40;;;;;;;5.13;2.38;;;13.30;73.20;;;;;;5073686;28;20089;-72
2021/05/03 18:00:08;;;;;;;;;;;13.20;73.10;;;;;;5071443;28;20042;-72
2021/05/03 18:02:35;;;;;;;3.60;2.35;;;13.10;75.00;;;;;;5068538;28;19977;-73
2021/05/03 18:05:03;;;;;;;3.05;1.90;;;13.00;74.90;;;;;;5070424;28;20143;-73
2021/05/03 18:07:31;;;;;;;7.63;2.47;;;13.00;74.80;;;;;;5069699;28;20037;-73
2021/05/03 18:09:58;;;;;;;7.03;2.08;;;12.90;74.70;;;;;;5060122;28;20045;-72
2021/05/03 18:12:24;;;;;;;3.42;2.13;;;13.00;74.60;;;;;;5073191;28;20043;-72
2021/05/03 18:14:51;;;;;;;2.83;2.33;;;12.90;75.20;;;;;;5070229;28;20131;-73
2021/05/03 18:17:18;;;;;;;3.67;2.38;;;12.80;75.70;;;;;;5072967;28;20131;-72